createdAt,value
2018-12-03T17:23:34.140Z,996.85
2018-12-03T17:24:34.097Z,996.87
2018-12-03T17:25:34.148Z,996.91
2018-12-03T17:26:34.203Z,996.78
2018-12-03T17:27:34.264Z,996.83
2018-12-03T17:28:34.328Z,996.88
2018-12-03T17:29:34.389Z,996.89
2018-12-03T17:30:34.440Z,996.89
2018-12-03T17:31:34.580Z,996.92
2018-12-03T17:32:34.560Z,996.89
2018-12-03T17:33:34.632Z,996.93
2018-12-03T17:34:34.692Z,996.93
2018-12-03T17:35:34.740Z,996.98
2018-12-03T17:36:34.804Z,996.96
2018-12-03T17:37:34.864Z,996.96
2018-12-03T17:38:34.949Z,996.94
2018-12-03T17:39:34.996Z,996.97
2018-12-03T17:40:35.049Z,996.95
2018-12-03T17:41:35.116Z,997.01
2018-12-03T17:42:35.174Z,997.02
2018-12-03T17:43:35.249Z,997.03
2018-12-03T17:44:35.297Z,997.08
2018-12-03T17:45:35.361Z,997.12
2018-12-03T17:46:35.420Z,997.09
2018-12-03T17:47:35.486Z,997.14
2018-12-03T17:48:35.553Z,997.10
2018-12-03T17:49:35.617Z,997.11
2018-12-03T17:50:35.669Z,997.13
2018-12-03T17:51:35.733Z,997.15
2018-12-03T17:52:35.797Z,997.16
2018-12-03T17:53:35.865Z,997.11
2018-12-03T17:54:35.930Z,997.09
2018-12-03T17:55:35.986Z,997.08
2018-12-03T17:56:36.092Z,997.08
2018-12-03T17:57:36.110Z,997.13
2018-12-03T17:58:36.197Z,997.19
2018-12-03T17:59:36.236Z,997.20
2018-12-03T18:00:36.298Z,997.18
2018-12-03T18:01:36.362Z,997.13
2018-12-03T18:02:36.426Z,997.09
2018-12-03T18:03:36.501Z,997.13
2018-12-03T18:04:36.558Z,997.14
2018-12-03T18:05:36.615Z,997.08
2018-12-03T18:06:36.675Z,997.14
2018-12-03T18:07:36.740Z,997.13
2018-12-03T18:08:36.810Z,997.21
2018-12-03T18:09:36.870Z,997.18
2018-12-03T18:10:36.927Z,997.23
2018-12-03T18:11:36.991Z,997.23
2018-12-03T18:12:37.055Z,997.29
2018-12-03T18:13:37.131Z,997.29
2018-12-03T18:14:37.179Z,997.30
2018-12-03T18:15:37.247Z,997.25
2018-12-03T18:16:37.308Z,997.30
2018-12-03T18:17:37.367Z,997.30
2018-12-03T18:18:37.439Z,997.30
2018-12-03T18:19:37.503Z,997.34
2018-12-03T18:20:37.554Z,997.36
2018-12-03T18:21:37.619Z,997.37
2018-12-03T18:22:37.683Z,997.37
2018-12-03T18:23:37.757Z,997.40
2018-12-03T18:24:37.819Z,997.35
2018-12-03T18:25:37.871Z,997.37
2018-12-03T18:26:37.938Z,997.45
2018-12-03T18:27:37.997Z,997.41
2018-12-03T18:28:38.071Z,997.43
2018-12-03T18:29:38.131Z,997.47
2018-12-03T18:30:38.194Z,997.43
2018-12-03T18:31:38.247Z,997.47
2018-12-03T18:32:38.312Z,997.45
2018-12-03T18:33:38.396Z,997.48
2018-12-03T18:34:38.447Z,997.55
2018-12-03T18:35:38.500Z,997.49
2018-12-03T18:36:38.564Z,997.50
2018-12-03T18:37:38.629Z,997.51
2018-12-03T18:38:38.697Z,997.49
2018-12-03T18:39:38.764Z,997.51
2018-12-03T18:40:38.816Z,997.52
2018-12-03T18:41:38.880Z,997.44
2018-12-03T18:42:38.940Z,997.55
2018-12-03T18:43:39.012Z,997.52
2018-12-03T18:44:39.082Z,997.49
2018-12-03T18:45:39.132Z,997.56
2018-12-03T18:46:39.194Z,997.62
2018-12-03T18:47:39.257Z,997.54
2018-12-03T18:48:39.335Z,997.63
2018-12-03T18:49:39.393Z,997.58
2018-12-03T18:50:39.449Z,997.60
2018-12-03T18:51:39.510Z,997.60
2018-12-03T18:52:39.579Z,997.67
2018-12-03T18:53:39.646Z,997.68
2018-12-03T18:54:39.705Z,997.64
2018-12-03T18:55:39.764Z,997.71
2018-12-03T18:56:39.825Z,997.71
2018-12-03T18:57:39.889Z,997.70
2018-12-03T18:58:39.966Z,997.71
2018-12-03T18:59:40.021Z,997.64
2018-12-03T19:00:40.081Z,997.69
2018-12-03T19:01:40.141Z,997.71
2018-12-03T19:02:40.201Z,997.61
2018-12-03T19:03:40.297Z,997.58
2018-12-03T19:04:40.330Z,997.66
2018-12-03T19:05:40.400Z,997.61
2018-12-03T19:06:40.454Z,997.62
2018-12-03T19:07:40.519Z,997.68
2018-12-03T19:08:40.589Z,997.70
2018-12-03T19:09:40.659Z,997.71
2018-12-03T19:10:40.707Z,997.71
2018-12-03T19:11:40.771Z,997.68
2018-12-03T19:12:40.838Z,997.71
2018-12-03T19:13:40.904Z,997.79
2018-12-03T19:14:40.982Z,997.69
2018-12-03T19:15:41.024Z,997.80
2018-12-03T19:16:41.086Z,997.73
2018-12-03T19:17:41.150Z,997.82
2018-12-03T19:18:41.214Z,997.74
2018-12-03T19:19:41.290Z,997.86
2018-12-03T19:20:41.339Z,997.86
2018-12-03T19:21:41.404Z,997.83
2018-12-03T19:22:41.462Z,997.84
2018-12-03T19:23:41.526Z,997.89
2018-12-03T19:24:41.596Z,997.94
2018-12-03T19:25:41.662Z,997.93
2018-12-03T19:26:41.721Z,997.91
2018-12-03T19:27:41.779Z,997.91
2018-12-03T19:28:41.843Z,997.96
2018-12-03T19:29:41.911Z,997.90
2018-12-03T19:30:41.977Z,997.93
2018-12-03T19:31:42.034Z,997.91
2018-12-03T19:32:42.096Z,997.93
2018-12-03T19:33:42.155Z,998.02
2018-12-03T19:34:42.458Z,998.01
2018-12-03T19:35:42.398Z,998.05
2018-12-03T19:36:42.342Z,998.06
2018-12-03T19:37:42.408Z,998.03
2018-12-03T19:38:42.745Z,998.12
2018-12-03T19:39:42.751Z,998.13
2018-12-03T19:40:42.605Z,998.12
2018-12-03T19:41:42.660Z,998.21
2018-12-03T19:42:42.721Z,998.21
2018-12-03T19:43:42.783Z,998.25
2018-12-03T19:44:42.856Z,998.24
2018-12-03T19:45:42.919Z,998.22
2018-12-03T19:46:42.971Z,998.21
2018-12-03T19:47:43.035Z,998.26
2018-12-03T19:48:43.099Z,998.29
2018-12-03T19:49:43.255Z,998.27
2018-12-03T19:50:43.227Z,998.24
2018-12-03T19:51:43.287Z,998.27
2018-12-03T19:52:43.351Z,998.22
2018-12-03T19:53:43.417Z,998.29
2018-12-03T19:54:43.487Z,998.26
2018-12-03T19:55:43.552Z,998.26
2018-12-03T19:56:43.604Z,998.31
2018-12-03T19:57:43.671Z,998.37
2018-12-03T19:58:43.727Z,998.36
2018-12-03T19:59:43.802Z,998.32
2018-12-03T20:00:43.864Z,998.42
2018-12-03T20:01:43.916Z,998.37
2018-12-03T20:02:43.980Z,998.38
2018-12-03T20:03:44.044Z,998.46
2018-12-03T20:04:44.103Z,998.44
2018-12-03T20:05:44.300Z,998.43
2018-12-03T20:06:44.232Z,998.43
2018-12-03T20:07:44.292Z,998.46
2018-12-03T20:08:44.355Z,998.46
2018-12-03T20:09:44.424Z,998.49
2018-12-03T20:10:44.492Z,998.50
2018-12-03T20:11:44.568Z,998.50
2018-12-03T20:12:44.615Z,998.54
2018-12-03T20:13:44.672Z,998.49
2018-12-03T20:14:44.732Z,998.55
2018-12-03T20:15:44.805Z,998.56
2018-12-03T20:16:44.869Z,998.58
2018-12-03T20:17:44.924Z,998.62
2018-12-03T20:18:44.985Z,998.61
2018-12-03T20:19:45.048Z,998.60
2018-12-03T20:20:45.137Z,998.65
2018-12-03T20:21:45.176Z,998.65
2018-12-03T20:22:45.240Z,998.66
2018-12-03T20:23:45.305Z,998.69
2018-12-03T20:24:45.365Z,998.75
2018-12-03T20:25:45.437Z,998.74
2018-12-03T20:26:45.497Z,998.78
2018-12-03T20:27:45.561Z,998.74
2018-12-03T20:28:45.617Z,998.77
2018-12-03T20:29:45.681Z,998.81
2018-12-03T20:30:45.748Z,998.84
2018-12-03T20:31:45.812Z,998.82
2018-12-03T20:32:45.869Z,998.85
2018-12-03T20:33:45.929Z,998.85
2018-12-03T20:34:45.996Z,998.86
2018-12-03T20:35:46.065Z,998.89
2018-12-03T20:36:46.129Z,998.87
2018-12-03T20:37:46.181Z,998.97
2018-12-03T20:38:46.245Z,998.96
2018-12-03T20:39:46.305Z,998.98
2018-12-03T20:40:46.377Z,999.01
2018-12-03T20:41:46.441Z,998.98
2018-12-03T20:42:46.493Z,998.99
2018-12-03T20:43:46.558Z,998.99
2018-12-03T20:44:46.621Z,999.05
2018-12-03T20:45:46.689Z,999.05
2018-12-03T20:46:46.754Z,999.11
2018-12-03T20:47:46.818Z,999.13
2018-12-03T20:48:46.874Z,999.12
2018-12-03T20:49:46.938Z,999.13
2018-12-03T20:50:47.007Z,999.16
2018-12-03T20:51:47.070Z,999.16
2018-12-03T20:52:48.606Z,999.17
2018-12-03T20:53:47.190Z,999.24
2018-12-03T20:54:47.250Z,999.19
2018-12-03T20:55:47.314Z,999.26
2018-12-03T20:56:47.486Z,999.34
2018-12-03T20:57:47.438Z,999.29
2018-12-03T20:58:47.510Z,999.18
2018-12-03T20:59:47.562Z,999.35
2018-12-03T21:00:47.626Z,999.37
2018-12-03T21:01:47.709Z,999.39
2018-12-03T21:02:47.758Z,999.39
2018-12-03T21:03:47.818Z,999.41
2018-12-03T21:04:47.878Z,999.40
2018-12-03T21:05:47.942Z,999.40
2018-12-03T21:06:48.010Z,999.43
2018-12-03T21:07:48.086Z,999.45
2018-12-03T21:08:48.131Z,999.47
2018-12-03T21:09:48.240Z,999.45
2018-12-03T21:10:48.254Z,999.51
2018-12-03T21:11:48.419Z,999.57
2018-12-03T21:12:48.379Z,999.57
2018-12-03T21:13:48.447Z,999.58
2018-12-03T21:14:48.507Z,999.60
2018-12-03T21:15:48.566Z,999.63
2018-12-03T21:16:49.091Z,999.58
2018-12-03T21:17:48.695Z,999.68
2018-12-03T21:18:48.755Z,999.66
2018-12-03T21:19:48.819Z,999.67
2018-12-03T21:20:48.883Z,999.69
2018-12-03T21:21:48.943Z,999.72
2018-12-03T21:22:49.024Z,999.74
2018-12-03T21:23:49.071Z,999.72
2018-12-03T21:24:49.139Z,999.70
2018-12-03T21:25:49.196Z,999.75
2018-12-03T21:26:49.260Z,999.85
2018-12-03T21:27:49.562Z,999.78
2018-12-03T21:28:49.383Z,999.83
2018-12-03T21:29:49.451Z,999.84
2018-12-03T21:30:49.507Z,999.83
2018-12-03T21:31:49.572Z,999.88
2018-12-03T21:32:49.648Z,999.92
2018-12-03T21:33:49.715Z,999.92
2018-12-03T21:34:49.766Z,999.91
2018-12-03T21:35:49.825Z,999.91
2018-12-03T21:36:49.888Z,999.91
2018-12-03T21:37:49.955Z,999.90
2018-12-03T21:38:50.020Z,999.96
2018-12-03T21:39:50.076Z,999.99
2018-12-03T21:40:50.140Z,999.99
2018-12-03T21:41:50.200Z,999.99
2018-12-03T21:42:50.312Z,999.93
2018-12-03T21:43:50.328Z,1000.06
2018-12-03T21:44:50.392Z,1000.07
2018-12-03T21:45:50.452Z,1000.03
2018-12-03T21:46:50.513Z,1000.06
2018-12-03T21:47:50.604Z,1000.08
2018-12-03T21:48:50.650Z,1000.13
2018-12-03T21:49:50.705Z,1000.18
2018-12-03T21:50:50.769Z,1000.10
2018-12-03T21:51:50.829Z,1000.12
2018-12-03T21:52:50.898Z,1000.17
2018-12-03T21:53:50.961Z,1000.19
2018-12-03T21:54:51.017Z,1000.19
2018-12-03T21:55:51.077Z,1000.20
2018-12-03T21:56:51.141Z,1000.26
2018-12-03T21:57:51.265Z,1000.27
2018-12-03T21:58:51.268Z,1000.21
2018-12-03T21:59:56.730Z,1000.20
2018-12-03T22:00:51.393Z,1000.25
2018-12-03T22:01:51.458Z,1000.24
2018-12-03T22:02:51.526Z,1000.25
2018-12-03T22:03:51.589Z,1000.30
2018-12-03T22:04:51.645Z,1000.27
2018-12-03T22:05:51.710Z,1000.36
2018-12-03T22:06:51.775Z,1000.33
2018-12-03T22:07:51.838Z,1000.36
2018-12-03T22:08:51.902Z,1000.34
2018-12-03T22:09:51.957Z,1000.43
2018-12-03T22:10:52.018Z,1000.40
2018-12-03T22:11:52.086Z,1000.41
2018-12-03T22:12:52.174Z,1000.46
2018-12-03T22:13:52.265Z,1000.45
2018-12-03T22:14:52.270Z,1000.50
2018-12-03T22:15:52.334Z,1000.52
2018-12-03T22:16:52.394Z,1000.61
2018-12-03T22:17:52.466Z,1000.57
2018-12-03T22:18:52.538Z,1000.58
2018-12-03T22:19:52.582Z,1000.60
2018-12-03T22:20:52.646Z,1000.59
2018-12-03T22:21:52.711Z,1000.52
2018-12-03T22:22:52.781Z,1000.60
2018-12-03T22:23:52.846Z,1000.61
2018-12-03T22:24:52.899Z,1000.70
2018-12-03T22:25:52.959Z,1000.72
2018-12-03T22:26:53.030Z,1000.75
2018-12-03T22:27:53.199Z,1000.82
2018-12-03T22:28:53.147Z,1000.82
2018-12-03T22:29:53.211Z,1000.82
2018-12-03T22:30:53.270Z,1000.88
2018-12-03T22:31:53.338Z,1000.89
2018-12-03T22:32:53.407Z,1000.93
2018-12-03T22:33:53.477Z,1000.93
2018-12-03T22:34:53.523Z,1000.99
2018-12-03T22:35:53.595Z,1000.99
2018-12-03T22:36:53.651Z,1001.02
2018-12-03T22:37:53.722Z,1001.00
2018-12-03T22:38:53.787Z,1001.03
2018-12-03T22:39:53.841Z,1001.08
2018-12-03T22:40:53.899Z,1001.13
2018-12-03T22:41:53.963Z,1001.15
2018-12-03T22:42:54.033Z,1001.10
2018-12-03T22:43:54.098Z,1001.19
2018-12-03T22:44:54.189Z,1001.18
2018-12-03T22:45:54.223Z,1001.20
2018-12-03T22:46:54.275Z,1001.24
2018-12-03T22:47:54.363Z,1001.22
2018-12-03T22:48:54.403Z,1001.23
2018-12-03T22:49:54.464Z,1001.29
2018-12-03T22:50:54.531Z,1001.25
2018-12-03T22:51:54.593Z,1001.29
2018-12-03T22:52:54.659Z,1001.27
2018-12-03T22:53:54.725Z,1001.34
2018-12-03T22:54:54.776Z,1001.36
2018-12-03T22:55:54.840Z,1001.36
2018-12-03T22:56:54.904Z,1001.38
2018-12-03T22:57:54.972Z,1001.43
2018-12-03T22:58:55.036Z,1001.46
2018-12-03T22:59:55.092Z,1001.47
2018-12-03T23:00:55.151Z,1001.49
2018-12-03T23:01:55.218Z,1001.56
2018-12-03T23:02:55.400Z,1001.60
2018-12-03T23:03:55.340Z,1001.55
2018-12-03T23:04:55.404Z,1001.62
2018-12-03T23:05:55.468Z,1001.64
2018-12-03T23:06:55.528Z,1001.67
2018-12-03T23:07:55.609Z,1001.72
2018-12-03T23:08:55.663Z,1001.74
2018-12-03T23:09:55.724Z,1001.76
2018-12-03T23:10:55.780Z,1001.79
2018-12-03T23:11:55.844Z,1001.72
2018-12-03T23:12:55.912Z,1001.79
2018-12-03T23:13:55.975Z,1001.83
2018-12-03T23:14:56.028Z,1001.84
2018-12-03T23:15:56.092Z,1001.86
2018-12-03T23:16:56.156Z,1001.85
2018-12-03T23:17:56.280Z,1001.91
2018-12-03T23:18:56.283Z,1001.92
2018-12-03T23:19:56.344Z,1001.94
2018-12-03T23:20:56.408Z,1002.04
2018-12-03T23:21:56.468Z,1002.02
2018-12-03T23:22:56.544Z,1002.10
2018-12-03T23:23:56.604Z,1002.18
2018-12-03T23:24:56.656Z,1002.12
2018-12-03T23:25:56.721Z,1002.13
2018-12-03T23:26:56.785Z,1002.20
2018-12-03T23:27:56.852Z,1002.16
2018-12-03T23:28:56.918Z,1002.24
2018-12-03T23:29:56.968Z,1002.27
2018-12-03T23:30:57.044Z,1002.27
2018-12-03T23:31:57.096Z,1002.30
2018-12-03T23:32:57.180Z,1002.29
2018-12-03T23:33:57.221Z,1002.34
2018-12-03T23:34:57.282Z,1002.39
2018-12-03T23:35:57.345Z,1002.38
2018-12-03T23:36:57.409Z,1002.42
2018-12-03T23:37:57.476Z,1002.49
2018-12-03T23:38:57.551Z,1002.47
2018-12-03T23:39:57.596Z,1002.51
2018-12-03T23:40:57.663Z,1002.52
2018-12-03T23:41:57.725Z,1002.54
2018-12-03T23:42:57.793Z,1002.57
2018-12-03T23:43:57.857Z,1002.59
2018-12-03T23:44:57.909Z,1002.61
2018-12-03T23:45:57.973Z,1002.60
2018-12-03T23:46:58.033Z,1002.68
2018-12-03T23:47:58.209Z,1002.71
2018-12-03T23:48:58.161Z,1002.71
2018-12-03T23:49:58.221Z,1002.74
2018-12-03T23:50:58.289Z,1002.75
2018-12-03T23:51:58.345Z,1002.81
2018-12-03T23:52:58.418Z,1002.86
2018-12-03T23:53:58.481Z,1002.91
2018-12-03T23:54:58.540Z,1002.89
2018-12-03T23:55:58.601Z,1002.94
2018-12-03T23:56:58.662Z,1003.03
2018-12-03T23:57:58.730Z,1003.01
2018-12-03T23:58:58.794Z,1003.09
2018-12-03T23:59:58.846Z,1003.11
